North Pole, Alaska
Current Conditions -  °F | °C
As of 8:58 AM on Thursday 30 Oct 2014 (Local Time) from PAEI Reporting Station
Overcast Overcast  
Wind Chill: 10°   Ceiling: 1600
Heat Index: 10°   Visibility: 10mi
Dew Point:   Wind: 0mph
Humidity: 83%   Direction: NA
Pressure: 29.78"   Gusts: NA
Location:  64.75°N, 147.35°W
Report Text: PAEI 301658Z 00000KT 10SM OVC016 M12/M15 A2978 RMK AO2A SLP100 T11251148 CHINO RWY14 $
Loading
Personal Weather Stations






























Interactive Weather Map
Tropical Storm Tracking
New forecast layout! Learn more

10-Day Weather Forecast

Advertisements
Track Severe Weather on mobile